Terminal Aerodrome Forecast
Issued by NWS Memphis, TN

Current Version | Previous Version | Text Only | Print | Product List | Glossary On
Versions: 1 2 3 4 5 6 7 8 9 10 11 12 13 14 15 16 17 18 19 20 21 22 23 24
130
FTUS44 KMEG 140310 AAA
TAFMEM
TAF AMD
KMEM 140310Z 1403/1424 08008KT P6SM BKN250
     FM141100 11009KT P6SM OVC045
     FM141500 13012KT P6SM OVC035
     FM141800 16012KT P6SM VCSH OVC035
     FM142300 18007KT 6SM -RA OVC025=

USA.gov is the U.S. government's official web portal to all federal, state and local government web resources and services.